createdAt,value
2022-11-04T00:01:44.474Z,1.50
2022-11-04T00:04:12.496Z,2.73
2022-11-04T00:06:39.763Z,3.47
2022-11-04T00:09:08.794Z,2.83
2022-11-04T00:11:54.076Z,1.10
2022-11-04T00:14:20.831Z,2.33
2022-11-04T00:17:05.873Z,1.40
2022-11-04T00:19:52.496Z,2.17
2022-11-04T00:22:38.117Z,2.90
2022-11-04T00:25:23.437Z,1.37
2022-11-04T00:28:08.445Z,1.47
2022-11-04T00:30:35.173Z,1.73
2022-11-04T00:33:20.229Z,4.77
2022-11-04T00:35:54.355Z,2.83
2022-11-04T00:38:21.002Z,2.13
2022-11-04T00:40:47.509Z,1.67
2022-11-04T00:43:14.125Z,1.60
2022-11-04T00:45:42.313Z,1.40
2022-11-04T00:48:09.340Z,1.63
2022-11-04T00:50:36.621Z,1.50
2022-11-04T00:53:03.958Z,1.47
2022-11-04T00:55:30.498Z,6.23
2022-11-04T00:57:58.536Z,3.47
2022-11-04T01:00:25.318Z,1.37
2022-11-04T01:02:51.852Z,2.83
2022-11-04T01:05:18.461Z,2.43
2022-11-04T01:07:44.934Z,2.27
2022-11-04T01:10:11.591Z,1.83
2022-11-04T01:12:38.098Z,2.50
2022-11-04T01:15:05.139Z,1.33
2022-11-04T01:17:31.621Z,1.30
2022-11-04T01:19:58.116Z,1.50
2022-11-04T01:22:24.603Z,1.90
2022-11-04T01:24:51.089Z,2.20
2022-11-04T01:27:17.825Z,3.50
2022-11-04T01:29:44.358Z,2.50
2022-11-04T01:32:10.817Z,2.87
2022-11-04T01:34:42.378Z,1.60
2022-11-04T01:37:10.317Z,2.20
2022-11-04T01:39:36.777Z,1.60
2022-11-04T01:44:46.974Z,2.40
2022-11-04T01:47:19.991Z,1.80
2022-11-04T01:49:50.490Z,2.63
2022-11-04T01:52:23.748Z,1.90
2022-11-04T01:54:52.026Z,3.27
2022-11-04T01:57:20.543Z,2.70
2022-11-04T01:59:47.424Z,3.50
2022-11-04T02:02:14.105Z,2.00
2022-11-04T02:04:40.814Z,3.40
2022-11-04T02:07:09.482Z,2.10
2022-11-04T02:09:37.702Z,3.03
2022-11-04T02:12:23.413Z,5.30
2022-11-04T02:14:50.620Z,2.47
2022-11-04T02:17:20.123Z,3.03
2022-11-04T02:20:01.971Z,2.93
2022-11-04T02:22:42.156Z,3.13
2022-11-04T02:25:23.872Z,2.30
2022-11-04T02:28:13.548Z,3.37
2022-11-04T02:30:59.244Z,3.53
2022-11-04T02:33:40.358Z,3.77
2022-11-04T02:36:12.623Z,3.20
2022-11-04T02:38:49.827Z,1.83
2022-11-04T02:41:22.450Z,2.27
2022-11-04T02:44:15.208Z,3.93
2022-11-04T02:47:03.451Z,4.30
2022-11-04T02:49:53.186Z,3.30
2022-11-04T02:52:26.496Z,6.70
2022-11-04T02:55:00.987Z,4.87
2022-11-04T02:57:31.056Z,4.67
2022-11-04T03:00:02.132Z,5.83
2022-11-04T03:02:35.076Z,5.07
2022-11-04T03:05:03.773Z,4.73
2022-11-04T03:07:33.003Z,4.93
2022-11-04T03:10:06.823Z,4.83
2022-11-04T03:12:39.157Z,3.93
2022-11-04T03:15:07.981Z,6.10
2022-11-04T03:17:56.415Z,5.87
2022-11-04T03:20:26.007Z,5.73
2022-11-04T03:22:55.739Z,4.53
2022-11-04T03:25:27.460Z,4.47
2022-11-04T03:28:17.756Z,4.00
2022-11-04T03:30:47.796Z,4.87
2022-11-04T03:33:40.121Z,4.80
2022-11-04T03:36:08.853Z,4.83
2022-11-04T03:38:36.407Z,4.40
2022-11-04T03:41:06.816Z,8.87
2022-11-04T03:43:34.795Z,4.17
2022-11-04T03:46:01.295Z,7.60
2022-11-04T03:48:27.852Z,6.23
2022-11-04T03:50:54.327Z,5.13
2022-11-04T03:53:22.665Z,4.77
2022-11-04T03:56:07.390Z,6.60
2022-11-04T03:58:36.924Z,9.10
2022-11-04T04:01:12.896Z,3.97
2022-11-04T04:03:48.452Z,6.20
2022-11-04T04:06:21.791Z,7.93
2022-11-04T04:08:57.520Z,6.90
2022-11-04T04:11:45.197Z,5.50
2022-11-04T04:14:37.581Z,5.20
2022-11-04T04:17:07.418Z,8.60
2022-11-04T04:19:34.138Z,6.60
2022-11-04T04:22:09.548Z,3.93
2022-11-04T04:24:56.110Z,8.67
2022-11-04T04:27:32.738Z,4.93
2022-11-04T04:30:14.564Z,5.87
2022-11-04T04:32:45.673Z,4.67
2022-11-04T04:35:31.360Z,9.37
2022-11-04T04:38:20.925Z,6.77
2022-11-04T04:41:23.487Z,5.90
2022-11-04T04:44:08.879Z,4.83
2022-11-04T04:46:35.855Z,9.30
2022-11-04T04:49:08.985Z,6.30
2022-11-04T04:51:41.578Z,10.70
2022-11-04T04:54:08.150Z,6.93
2022-11-04T04:56:34.608Z,8.50
2022-11-04T04:59:01.114Z,9.67
2022-11-04T05:01:28.536Z,10.50
2022-11-04T05:03:55.076Z,4.80
2022-11-04T05:06:21.639Z,6.40
2022-11-04T05:08:48.069Z,9.60
2022-11-04T05:11:14.734Z,5.27
2022-11-04T05:13:41.266Z,6.37
2022-11-04T05:16:11.575Z,9.77
2022-11-04T05:18:38.252Z,7.17
2022-11-04T05:21:06.900Z,6.87
2022-11-04T05:23:34.893Z,8.33
2022-11-04T05:26:01.442Z,6.40
2022-11-04T05:28:27.962Z,5.43
2022-11-04T05:30:54.599Z,6.77
2022-11-04T05:33:21.365Z,8.60
2022-11-04T05:35:47.880Z,8.93
2022-11-04T05:38:14.572Z,4.43
2022-11-04T05:40:41.041Z,5.90
2022-11-04T05:43:08.369Z,10.10
2022-11-04T05:45:35.094Z,7.20
2022-11-04T05:48:03.684Z,9.20
2022-11-04T05:50:31.654Z,9.33
2022-11-04T05:52:59.018Z,9.37
2022-11-04T05:55:26.287Z,11.43
2022-11-04T05:57:53.761Z,5.57
2022-11-04T06:00:20.435Z,5.10
2022-11-04T06:02:47.088Z,9.70
2022-11-04T06:05:13.701Z,6.67
2022-11-04T06:07:40.290Z,7.43
2022-11-04T06:10:07.260Z,7.50
2022-11-04T06:12:33.854Z,9.60
2022-11-04T06:15:00.387Z,6.70
2022-11-04T06:17:26.865Z,6.30
2022-11-04T06:19:53.690Z,6.53
2022-11-04T06:22:20.424Z,9.83
2022-11-04T06:24:46.951Z,6.87
2022-11-04T06:27:13.992Z,7.10
2022-11-04T06:29:41.392Z,10.13
2022-11-04T06:32:13.310Z,7.53
2022-11-04T06:34:40.273Z,8.00
2022-11-04T06:37:06.818Z,6.10
2022-11-04T06:39:33.373Z,10.13
2022-11-04T06:42:02.646Z,9.60
2022-11-04T06:44:29.556Z,8.87
2022-11-04T06:46:56.182Z,6.20
2022-11-04T06:49:25.564Z,8.87
2022-11-04T06:51:52.245Z,8.07
2022-11-04T06:54:18.958Z,7.93
2022-11-04T06:56:45.980Z,10.17
2022-11-04T06:59:17.518Z,7.10
2022-11-04T07:01:44.697Z,9.83
2022-11-04T07:04:11.241Z,7.17
2022-11-04T07:06:39.815Z,6.47
2022-11-04T07:09:11.024Z,8.73
2022-11-04T07:11:37.559Z,5.77
2022-11-04T07:14:04.118Z,11.10
2022-11-04T07:16:30.659Z,7.40
2022-11-04T07:18:57.313Z,8.40
2022-11-04T07:21:24.240Z,10.07
2022-11-04T07:23:50.802Z,6.30
2022-11-04T07:26:17.358Z,7.00
2022-11-04T07:28:44.032Z,8.23
2022-11-04T07:31:12.493Z,5.97
2022-11-04T07:33:39.038Z,6.07
2022-11-04T07:36:08.232Z,9.27
2022-11-04T07:38:34.875Z,8.40
2022-11-04T07:41:02.633Z,6.63
2022-11-04T07:43:30.046Z,8.27
2022-11-04T07:46:04.261Z,9.67
2022-11-04T07:48:30.890Z,7.43
2022-11-04T07:50:59.817Z,9.17
2022-11-04T07:53:27.736Z,6.40
2022-11-04T07:55:54.262Z,8.30
2022-11-04T07:58:21.397Z,6.30
2022-11-04T08:00:48.038Z,6.67
2022-11-04T08:03:14.983Z,9.00
2022-11-04T08:05:41.888Z,5.70
2022-11-04T08:08:08.536Z,9.43
2022-11-04T08:10:35.762Z,7.50
2022-11-04T08:13:02.374Z,7.73
2022-11-04T08:15:29.353Z,6.93
2022-11-04T08:17:56.088Z,9.83
2022-11-04T08:20:22.699Z,7.77
2022-11-04T08:22:49.477Z,8.83
2022-11-04T08:25:16.906Z,4.83
2022-11-04T08:27:43.904Z,6.63
2022-11-04T08:30:10.970Z,7.20
2022-11-04T08:32:37.473Z,6.17
2022-11-04T08:35:04.422Z,10.87
2022-11-04T08:37:30.899Z,5.13
2022-11-04T08:39:57.461Z,9.27
2022-11-04T08:42:23.968Z,7.57
2022-11-04T08:44:53.304Z,8.73
2022-11-04T08:47:20.226Z,7.30
2022-11-04T08:49:46.759Z,11.17
2022-11-04T08:52:13.278Z,7.33
2022-11-04T08:54:39.809Z,8.10
2022-11-04T08:57:06.337Z,7.97
2022-11-04T08:59:32.899Z,7.40
2022-11-04T09:01:59.469Z,7.13
2022-11-04T09:04:25.968Z,8.33
2022-11-04T09:06:52.844Z,6.20
2022-11-04T09:09:19.816Z,6.13
2022-11-04T09:11:47.199Z,10.43
2022-11-04T09:14:14.471Z,5.63
2022-11-04T09:16:41.929Z,6.50
2022-11-04T09:19:08.621Z,8.23
2022-11-04T09:21:35.530Z,7.20
2022-11-04T09:24:02.064Z,10.27
2022-11-04T09:26:28.857Z,4.80
2022-11-04T09:28:56.747Z,7.37
2022-11-04T09:31:23.921Z,7.07
2022-11-04T09:33:50.947Z,11.47
2022-11-04T09:36:17.507Z,6.47
2022-11-04T09:38:44.984Z,11.77
2022-11-04T09:41:32.932Z,6.10
2022-11-04T09:44:22.814Z,7.57
2022-11-04T09:46:50.979Z,8.17
2022-11-04T09:49:17.956Z,5.40
2022-11-04T09:51:54.504Z,4.90
2022-11-04T09:54:28.216Z,5.80
2022-11-04T09:56:55.947Z,8.63
2022-11-04T09:59:28.292Z,9.20
2022-11-04T10:02:14.357Z,7.80
2022-11-04T10:05:02.628Z,6.67
2022-11-04T10:07:57.845Z,8.03
2022-11-04T10:10:58.577Z,6.80
2022-11-04T10:13:40.238Z,5.67
2022-11-04T10:16:09.888Z,5.93
2022-11-04T10:18:54.835Z,6.40
2022-11-04T10:21:53.706Z,7.70
2022-11-04T10:24:25.496Z,8.43
2022-11-04T10:27:01.278Z,5.17
2022-11-04T10:29:53.364Z,10.77
2022-11-04T10:32:22.749Z,5.10
2022-11-04T10:35:02.653Z,5.90
2022-11-04T10:37:29.239Z,5.47
2022-11-04T10:40:03.012Z,6.30
2022-11-04T10:42:29.475Z,6.50
2022-11-04T10:44:56.042Z,6.07
2022-11-04T10:47:40.966Z,8.23
2022-11-04T10:50:37.692Z,6.10
2022-11-04T10:53:19.346Z,7.33
2022-11-04T10:56:13.627Z,4.37
2022-11-04T10:58:44.254Z,8.47
2022-11-04T11:01:27.481Z,6.97
2022-11-04T11:03:54.572Z,4.60
2022-11-04T11:06:27.291Z,4.17
2022-11-04T11:08:57.243Z,7.03
2022-11-04T11:12:29.416Z,6.00
2022-11-04T11:14:53.608Z,5.67
2022-11-04T11:17:25.653Z,5.03
2022-11-04T11:20:08.614Z,7.30
2022-11-04T11:22:35.040Z,6.03
2022-11-04T11:25:13.656Z,5.87
2022-11-04T11:27:44.858Z,4.40
2022-11-04T11:30:52.411Z,7.27
2022-11-04T11:33:20.650Z,9.57
2022-11-04T11:35:51.436Z,8.63
2022-11-04T11:38:28.887Z,6.37
2022-11-04T11:41:24.286Z,8.00
2022-11-04T11:43:53.382Z,7.07
2022-11-04T11:46:31.329Z,4.83
2022-11-04T11:49:03.328Z,4.93
2022-11-04T11:51:37.138Z,6.50
2022-11-04T11:54:17.628Z,8.40
2022-11-04T11:57:12.634Z,9.27
2022-11-04T12:02:42.234Z,8.00
2022-11-04T12:11:35.357Z,6.03
2022-11-04T12:14:11.965Z,4.03
2022-11-04T12:16:47.991Z,9.00
2022-11-04T12:19:20.971Z,9.47
2022-11-04T12:21:55.102Z,8.60
2022-11-04T12:24:55.319Z,8.23
2022-11-04T12:27:27.872Z,7.37
2022-11-04T12:30:22.320Z,10.80
2022-11-04T12:33:17.852Z,5.97
2022-11-04T12:36:00.772Z,10.30
2022-11-04T12:38:36.153Z,6.40
2022-11-04T12:41:37.982Z,9.53
2022-11-04T12:44:30.154Z,8.37
2022-11-04T12:47:16.039Z,6.60
2022-11-04T12:50:16.689Z,8.90
2022-11-04T12:53:04.425Z,8.87
2022-11-04T12:55:46.321Z,6.43
2022-11-04T12:58:28.048Z,6.57
2022-11-04T13:01:01.888Z,6.97
2022-11-04T13:03:33.278Z,7.43
2022-11-04T13:06:12.285Z,5.63
2022-11-04T13:09:02.684Z,5.50
2022-11-04T13:11:31.988Z,6.23
2022-11-04T13:14:02.642Z,8.50
2022-11-04T13:16:31.902Z,7.83
2022-11-04T13:18:59.273Z,8.00
2022-11-04T13:21:28.750Z,7.83
2022-11-04T13:24:35.230Z,10.30
2022-11-04T13:27:06.125Z,9.87
2022-11-04T13:29:34.809Z,14.30
2022-11-04T13:32:13.059Z,14.03
2022-11-04T13:35:02.134Z,10.87
2022-11-04T13:37:33.420Z,10.10
2022-11-04T13:40:04.468Z,10.53
2022-11-04T13:42:47.766Z,6.97
2022-11-04T13:45:17.411Z,13.63
2022-11-04T13:47:44.051Z,9.63
2022-11-04T13:50:32.851Z,9.23
2022-11-04T13:52:59.625Z,12.80
2022-11-04T13:55:26.223Z,17.73
2022-11-04T13:57:55.974Z,11.80
2022-11-04T14:00:25.346Z,14.30
2022-11-04T14:02:51.975Z,10.53
2022-11-04T14:05:27.984Z,9.43
2022-11-04T14:08:03.121Z,13.10
2022-11-04T14:10:48.034Z,11.30
2022-11-04T14:13:34.848Z,13.13
2022-11-04T14:16:05.700Z,11.30
2022-11-04T14:18:36.680Z,10.07
2022-11-04T14:21:10.889Z,12.93
2022-11-04T14:23:39.218Z,12.90
2022-11-04T14:26:08.163Z,11.23
2022-11-04T14:28:35.370Z,8.83
2022-11-04T14:31:09.973Z,10.70
2022-11-04T14:33:40.653Z,9.90
2022-11-04T14:36:25.209Z,13.90
2022-11-04T14:38:53.296Z,8.33
2022-11-04T14:41:25.750Z,11.67
2022-11-04T14:43:53.797Z,13.13
2022-11-04T14:46:23.105Z,9.00
2022-11-04T14:48:53.559Z,10.50
2022-11-04T14:51:27.756Z,11.60
2022-11-04T14:54:19.085Z,8.27
2022-11-04T14:56:46.886Z,9.70
2022-11-04T14:59:22.064Z,12.77
2022-11-04T15:01:49.403Z,7.40
2022-11-04T15:04:26.464Z,9.77
2022-11-04T15:07:01.488Z,12.23
2022-11-04T15:09:30.976Z,12.47
2022-11-04T15:12:30.801Z,9.67
2022-11-04T15:14:58.005Z,9.50
2022-11-04T15:17:27.204Z,6.83
2022-11-04T15:19:56.115Z,15.00
2022-11-04T15:22:23.171Z,16.07
2022-11-04T15:24:53.125Z,14.20
2022-11-04T15:27:24.958Z,17.77
2022-11-04T15:30:00.457Z,14.83
2022-11-04T15:32:27.638Z,14.30
2022-11-04T15:34:54.989Z,10.53
2022-11-04T15:37:23.677Z,10.70
2022-11-04T15:39:52.898Z,9.70
2022-11-04T15:42:59.873Z,10.13
2022-11-04T15:45:35.105Z,9.10
2022-11-04T15:48:23.577Z,8.03
2022-11-04T15:51:16.470Z,11.63
2022-11-04T15:53:56.107Z,9.83
2022-11-04T15:56:27.398Z,10.37
2022-11-04T15:58:54.974Z,15.93
2022-11-04T16:01:21.970Z,15.27
2022-11-04T16:03:53.950Z,11.53
2022-11-04T16:06:37.550Z,16.03
2022-11-04T16:09:21.179Z,14.77
2022-11-04T16:12:07.636Z,11.57
2022-11-04T16:14:34.361Z,11.73
2022-11-04T16:17:01.025Z,9.57
2022-11-04T16:19:29.660Z,14.30
2022-11-04T16:22:05.605Z,14.83
2022-11-04T16:24:33.634Z,16.13
2022-11-04T16:27:01.197Z,11.77
2022-11-04T16:29:33.532Z,12.77
2022-11-04T16:32:09.731Z,11.47
2022-11-04T16:34:36.314Z,17.03
2022-11-04T16:37:03.041Z,16.17
2022-11-04T16:39:29.986Z,12.27
2022-11-04T16:41:57.125Z,15.40
2022-11-04T16:44:24.909Z,11.37
2022-11-04T16:46:52.218Z,12.20
2022-11-04T16:49:20.827Z,11.87
2022-11-04T16:51:50.966Z,15.50
2022-11-04T16:54:18.974Z,14.40
2022-11-04T16:56:45.757Z,12.43
2022-11-04T16:59:12.416Z,11.57
2022-11-04T17:01:42.282Z,11.03
2022-11-04T17:04:09.157Z,12.87
2022-11-04T17:06:36.215Z,12.23
2022-11-04T17:09:03.461Z,10.73
2022-11-04T17:11:30.407Z,13.03
2022-11-04T17:13:57.165Z,10.93
2022-11-04T17:16:24.678Z,9.80
2022-11-04T17:18:51.546Z,9.83
2022-11-04T17:21:20.460Z,15.90
2022-11-04T17:23:47.076Z,11.40
2022-11-04T17:26:14.339Z,10.03
2022-11-04T17:28:41.141Z,12.43
2022-11-04T17:31:08.152Z,8.20
2022-11-04T17:33:34.797Z,14.67
2022-11-04T17:36:07.521Z,14.03
2022-11-04T17:38:34.467Z,12.40
2022-11-04T17:41:19.651Z,13.33
2022-11-04T17:44:01.139Z,13.63
2022-11-04T17:46:35.057Z,11.87
2022-11-04T17:49:13.060Z,12.43
2022-11-04T17:51:41.828Z,15.67
2022-11-04T17:54:09.497Z,15.43
2022-11-04T17:56:37.677Z,14.53
2022-11-04T17:59:04.821Z,12.93
2022-11-04T18:01:33.236Z,14.77
2022-11-04T18:04:00.241Z,14.53
2022-11-04T18:06:30.523Z,13.97
2022-11-04T18:08:58.026Z,14.37
2022-11-04T18:11:44.754Z,10.43
2022-11-04T18:14:16.648Z,19.13
2022-11-04T18:16:46.297Z,10.57
2022-11-04T18:19:13.239Z,19.80
2022-11-04T18:21:40.006Z,21.57
2022-11-04T18:24:07.210Z,10.07
2022-11-04T18:26:34.499Z,15.23
2022-11-04T18:29:01.739Z,13.43
2022-11-04T18:31:30.789Z,17.43
2022-11-04T18:34:02.415Z,17.40
2022-11-04T18:36:29.886Z,14.33
2022-11-04T18:38:57.198Z,24.53
2022-11-04T18:41:24.068Z,18.33
2022-11-04T18:43:50.715Z,17.07
2022-11-04T18:46:17.945Z,18.17
2022-11-04T18:48:48.679Z,24.10
2022-11-04T18:51:15.339Z,39.17
2022-11-04T18:53:41.851Z,18.80
2022-11-04T18:56:10.850Z,22.10
2022-11-04T18:58:39.043Z,21.83
2022-11-04T19:01:08.696Z,29.40
2022-11-04T19:03:36.050Z,38.87
2022-11-04T19:06:13.492Z,27.00
2022-11-04T19:08:46.281Z,21.53
2022-11-04T19:11:24.377Z,44.53
2022-11-04T19:13:53.266Z,28.53
2022-11-04T19:16:20.631Z,25.67
2022-11-04T19:18:50.132Z,17.77
2022-11-04T19:21:19.122Z,27.80
2022-11-04T19:23:45.913Z,24.73
2022-11-04T19:26:19.145Z,35.97
2022-11-04T19:28:48.441Z,18.53
2022-11-04T19:31:27.750Z,29.80
2022-11-04T19:33:55.674Z,17.57
2022-11-04T19:36:22.809Z,18.83
2022-11-04T19:38:53.150Z,21.03
2022-11-04T19:41:38.901Z,18.20
2022-11-04T19:44:09.775Z,24.37
2022-11-04T19:46:37.101Z,24.07
2022-11-04T19:49:04.542Z,18.43
2022-11-04T19:51:32.257Z,23.03
2022-11-04T19:53:59.556Z,24.27
2022-11-04T19:56:26.751Z,24.07
2022-11-04T19:58:53.625Z,18.87
2022-11-04T20:01:21.321Z,33.53
2022-11-04T20:03:48.081Z,25.50
2022-11-04T20:06:16.201Z,38.90
2022-11-04T20:08:44.319Z,33.20
2022-11-04T20:11:12.318Z,28.37
2022-11-04T20:13:47.133Z,19.03
2022-11-04T20:16:18.192Z,18.50
2022-11-04T20:18:46.833Z,22.53
2022-11-04T20:21:14.499Z,27.23
2022-11-04T20:23:41.918Z,17.97
2022-11-04T20:26:21.026Z,20.00
2022-11-04T20:28:47.962Z,24.60
2022-11-04T20:31:20.125Z,22.23
2022-11-04T20:33:48.290Z,24.87
2022-11-04T20:36:17.485Z,18.80
2022-11-04T20:38:44.306Z,19.13
2022-11-04T20:41:21.619Z,21.83
2022-11-04T20:43:49.276Z,23.87
2022-11-04T20:46:18.583Z,22.17
2022-11-04T20:48:46.516Z,23.17
2022-11-04T20:51:18.745Z,23.10
2022-11-04T20:53:45.911Z,17.37
2022-11-04T20:56:15.071Z,16.77
2022-11-04T20:58:43.389Z,20.50
2022-11-04T21:01:16.672Z,17.03
2022-11-04T21:03:43.794Z,17.77
2022-11-04T21:06:11.502Z,21.00
2022-11-04T21:08:38.118Z,20.73
2022-11-04T21:11:05.943Z,19.60
2022-11-04T21:13:33.403Z,18.23
2022-11-04T21:16:01.224Z,19.87
2022-11-04T21:18:28.728Z,21.87
2022-11-04T21:20:55.376Z,19.87
2022-11-04T21:23:22.096Z,18.80
2022-11-04T21:25:59.846Z,23.03
2022-11-04T21:28:26.690Z,18.93
2022-11-04T21:30:54.247Z,18.33
2022-11-04T21:33:21.280Z,19.07
2022-11-04T21:35:50.754Z,17.63
2022-11-04T21:38:18.571Z,22.30
2022-11-04T21:40:45.907Z,20.60
2022-11-04T21:43:13.274Z,22.00
2022-11-04T21:45:39.871Z,21.20
2022-11-04T21:48:06.799Z,24.33
2022-11-04T21:50:33.733Z,18.13
2022-11-04T21:53:00.497Z,19.87
2022-11-04T21:55:26.998Z,21.17
2022-11-04T21:57:53.513Z,20.07
2022-11-04T22:00:20.262Z,23.80
2022-11-04T22:02:50.699Z,19.70
2022-11-04T22:05:17.822Z,17.47
2022-11-04T22:08:03.280Z,20.90
2022-11-04T22:10:29.788Z,24.40
2022-11-04T22:12:56.302Z,22.93
2022-11-04T22:15:41.242Z,20.00
2022-11-04T22:18:07.745Z,19.87
2022-11-04T22:20:37.733Z,23.70
2022-11-04T22:23:04.537Z,19.67
2022-11-04T22:25:31.333Z,20.43
2022-11-04T22:27:58.136Z,19.37
2022-11-04T22:30:24.969Z,21.70
2022-11-04T22:32:52.518Z,19.27
2022-11-04T22:35:19.118Z,19.73
2022-11-04T22:37:45.863Z,18.83
2022-11-04T22:40:12.817Z,21.93
2022-11-04T22:42:39.351Z,22.63
2022-11-04T22:45:06.449Z,15.80
2022-11-04T22:47:32.913Z,21.10
2022-11-04T22:49:59.389Z,15.20
2022-11-04T22:52:26.010Z,18.53
2022-11-04T22:54:52.440Z,18.57
2022-11-04T22:57:18.994Z,15.40
2022-11-04T22:59:45.470Z,17.30
2022-11-04T23:02:12.354Z,18.23
2022-11-04T23:04:40.517Z,12.93
2022-11-04T23:07:07.229Z,16.80
2022-11-04T23:09:34.058Z,16.57
2022-11-04T23:12:19.438Z,12.80
2022-11-04T23:14:45.950Z,19.57
2022-11-04T23:17:35.186Z,17.47
2022-11-04T23:20:02.591Z,16.37
2022-11-04T23:22:47.708Z,17.03
2022-11-04T23:25:14.565Z,14.23
2022-11-04T23:28:04.496Z,13.60
2022-11-04T23:30:33.431Z,16.97
2022-11-04T23:33:18.125Z,15.07
2022-11-04T23:36:07.630Z,18.67
2022-11-04T23:38:35.471Z,15.67
2022-11-04T23:41:25.580Z,16.83
2022-11-04T23:43:52.331Z,12.70
2022-11-04T23:46:42.619Z,14.87
2022-11-04T23:49:31.922Z,11.53
2022-11-04T23:52:17.019Z,17.17
2022-11-04T23:55:02.017Z,12.07
2022-11-04T23:57:47.403Z,14.80
